Time;durP1;ratioP1;P1;durP2;ratioP2;P2;SDS_P1;SDS_P2;PMS_P1;PMS_P2;Temp;Humidity;BMP_temperature;BMP_pressure;BME280_temperature;BME280_humidity;BME280_pressure;Samples;Min_cycle;Max_cycle;Signal;HPM_P1;HPM_P2
2022/12/27 00:01:28;;;;;;;9.23;8.13;;;10.40;99.90;;;;;;1892818;75;21105;-80
2022/12/27 00:04:19;;;;;;;9.88;7.85;;;10.40;99.90;;;;;;1893655;75;21167;-80
2022/12/27 00:07:14;;;;;;;9.88;7.50;;;10.40;99.90;;;;;;1895099;75;21103;-80
2022/12/27 00:10:13;;;;;;;11.73;8.38;;;10.40;99.90;;;;;;1885086;75;21172;-80
2022/12/27 00:13:03;;;;;;;;;;;10.30;99.90;;;;;;1890199;75;21573;-79
2022/12/27 00:15:55;;;;;;;9.55;8.23;;;10.30;99.90;;;;;;1882446;75;20200;-80
2022/12/27 00:18:51;;;;;;;16.52;12.03;;;10.30;99.90;;;;;;1893037;75;21121;-80
2022/12/27 00:21:46;;;;;;;14.80;12.33;;;10.30;99.90;;;;;;1905775;75;21086;-80
2022/12/27 00:24:41;;;;;;;16.48;12.80;;;10.30;99.90;;;;;;1890412;75;21579;-79
2022/12/27 00:27:33;;;;;;;15.93;12.73;;;10.40;99.90;;;;;;1885331;75;21125;-79
2022/12/27 00:30:31;;;;;;;13.53;10.98;;;10.40;99.90;;;;;;1882183;75;21168;-79
2022/12/27 00:33:24;;;;;;;14.28;11.03;;;10.40;99.90;;;;;;1882161;75;21245;-80
2022/12/27 00:36:18;;;;;;;12.70;11.33;;;10.40;99.90;;;;;;1894062;75;21062;-80
2022/12/27 00:39:12;;;;;;;13.43;11.08;;;10.40;99.90;;;;;;1891994;75;21098;-79
2022/12/27 00:42:04;;;;;;;13.35;10.40;;;10.40;99.90;;;;;;1861808;77;21192;-79
2022/12/27 00:44:58;;;;;;;14.65;11.10;;;10.30;99.90;;;;;;1896989;75;21082;-79
2022/12/27 00:47:52;;;;;;;13.43;10.82;;;10.30;99.90;;;;;;1896901;74;21126;-80
2022/12/27 00:50:47;;;;;;;13.70;10.38;;;10.30;99.90;;;;;;1905366;74;21106;-80
2022/12/27 00:53:44;;;;;;;13.50;10.68;;;10.30;99.90;;;;;;1893511;76;21086;-79
2022/12/27 00:56:37;;;;;;;11.97;10.38;;;10.30;99.90;;;;;;1905703;74;21102;-79
2022/12/27 00:59:31;;;;;;;13.08;10.08;;;10.30;99.90;;;;;;1903566;74;21110;-80
2022/12/27 01:02:24;;;;;;;10.95;9.20;;;10.30;99.90;;;;;;1903505;74;21102;-80
2022/12/27 01:05:17;;;;;;;10.88;8.40;;;10.30;99.90;;;;;;1905589;74;21051;-79
2022/12/27 01:08:10;;;;;;;11.33;9.33;;;10.30;99.90;;;;;;1893162;76;21171;-79
2022/12/27 01:11:04;;;;;;;12.20;9.73;;;10.20;99.90;;;;;;1915428;74;21219;-79
2022/12/27 01:13:58;;;;;;;11.15;9.65;;;10.20;99.90;;;;;;1920898;74;21047;-79
2022/12/27 01:16:50;;;;;;;10.70;9.60;;;10.20;99.90;;;;;;1903868;74;21471;-79
2022/12/27 01:19:41;;;;;;;11.85;10.08;;;10.20;99.90;;;;;;1926179;74;21124;-79
2022/12/27 01:22:33;;;;;;;10.98;9.08;;;10.10;99.90;;;;;;1905587;74;21163;-79
2022/12/27 01:25:24;;;;;;;11.70;9.45;;;10.10;99.90;;;;;;1904364;74;21147;-79
2022/12/27 01:28:16;;;;;;;11.20;8.80;;;10.10;99.90;;;;;;1904291;74;21094;-79
2022/12/27 01:31:08;;;;;;;10.10;9.08;;;10.00;99.90;;;;;;1907502;74;21161;-79
2022/12/27 01:34:01;;;;;;;12.18;8.55;;;10.00;99.90;;;;;;1906998;74;21189;-79
2022/12/27 01:36:52;;;;;;;9.75;8.53;;;9.90;99.90;;;;;;1903869;74;21078;-79
2022/12/27 01:39:44;;;;;;;10.08;8.78;;;9.90;99.90;;;;;;1903775;74;21168;-81
2022/12/27 01:42:54;;;;;;;10.20;8.58;;;9.90;99.90;;;;;;1906373;74;21098;-79
2022/12/27 01:45:47;;;;;;;10.35;9.03;;;9.80;99.90;;;;;;1909675;74;21569;-79
2022/12/27 01:48:39;;;;;;;10.35;8.50;;;9.80;99.90;;;;;;1897247;75;21164;-79
2022/12/27 01:51:30;;;;;;;10.60;8.43;;;9.80;99.90;;;;;;1908202;75;21109;-79
2022/12/27 01:54:21;;;;;;;10.38;7.70;;;9.70;99.90;;;;;;1893700;75;21120;-79
2022/12/27 01:57:13;;;;;;;9.30;8.30;;;9.60;99.90;;;;;;1891588;75;21091;-79
2022/12/27 02:00:06;;;;;;;10.65;8.98;;;9.50;99.90;;;;;;1886499;75;21153;-79
2022/12/27 02:02:59;;;;;;;11.28;8.58;;;9.50;99.90;;;;;;1872660;75;21110;-81
2022/12/27 02:05:51;;;;;;;10.43;9.33;;;9.60;99.90;;;;;;1905715;75;21194;-81
2022/12/27 02:08:47;;;;;;;9.90;8.85;;;9.60;99.90;;;;;;1884209;75;21098;-81
2022/12/27 02:11:52;;;;;;;10.53;9.33;;;9.60;99.90;;;;;;1886005;75;21101;-79
2022/12/27 02:14:45;;;;;;;9.98;8.55;;;9.60;99.90;;;;;;1898805;75;21173;-79
2022/12/27 02:17:36;;;;;;;10.65;9.10;;;9.60;99.90;;;;;;1915366;75;21135;-79
2022/12/27 02:20:31;;;;;;;11.85;9.00;;;9.60;99.90;;;;;;1910178;75;21174;-81
2022/12/27 02:26:52;;;;;;;8.93;7.80;;;9.50;99.90;;;;;;1954719;72;22110;-81
2022/12/27 02:29:55;;;;;;;8.60;7.53;;;9.50;99.90;;;;;;1905127;75;21087;-81
2022/12/27 02:32:49;;;;;;;9.13;8.10;;;9.40;99.90;;;;;;1904774;75;21106;-80
2022/12/27 02:35:43;;;;;;;8.88;7.85;;;9.40;99.90;;;;;;1906721;75;21624;-80
2022/12/27 02:38:37;;;;;;;8.33;7.50;;;9.40;99.90;;;;;;1927686;74;21154;-80
2022/12/27 02:54:48;;;;;;;10.48;7.80;;;9.30;99.90;;;;;;1904310;75;21179;-80
2022/12/27 02:57:44;;;;;;;9.68;7.67;;;9.30;99.90;;;;;;1904704;75;21096;-80
2022/12/27 03:03:55;;;;;;;8.95;7.40;;;9.40;99.90;;;;;;1904990;75;21058;-80
2022/12/27 03:07:02;;;;;;;8.28;6.97;;;9.40;99.90;;;;;;1924060;74;21679;-80
2022/12/27 03:16:41;;;;;;;8.43;7.08;;;9.60;99.90;;;;;;1904986;75;21056;-80
2022/12/27 03:35:17;;;;;;;7.40;6.28;;;9.60;99.90;;;;;;1927586;74;21111;-80
2022/12/27 03:38:11;;;;;;;5.30;4.80;;;9.70;99.90;;;;;;1927780;74;21606;-79
2022/12/27 03:44:24;;;;;;;8.55;5.80;;;9.50;99.90;;;;;;1917955;74;21205;-79
2022/12/27 03:47:18;;;;;;;7.55;5.83;;;9.50;99.90;;;;;;1935880;74;21197;-79
2022/12/27 03:50:14;;;;;;;6.20;5.60;;;9.50;99.90;;;;;;1927747;74;21106;-79
2022/12/27 03:53:08;;;;;;;7.05;5.65;;;9.50;99.90;;;;;;1894215;75;21125;-79
2022/12/27 03:56:00;;;;;;;7.08;5.45;;;9.50;99.90;;;;;;1919579;74;21186;-79
2022/12/27 03:58:53;;;;;;;7.83;5.30;;;9.50;99.90;;;;;;1927952;74;21124;-78
2022/12/27 04:01:44;;;;;;;6.33;5.12;;;9.50;99.90;;;;;;1900773;75;21098;-79
2022/12/27 04:04:36;;;;;;;6.00;5.40;;;9.40;99.90;;;;;;1901450;74;21118;-80
2022/12/27 04:07:27;;;;;;;7.90;6.30;;;9.40;99.90;;;;;;1934051;74;21091;-79
2022/12/27 04:35:31;;;;;;;7.47;5.53;;;9.40;99.90;;;;;;1923845;74;21098;-79
2022/12/27 04:38:22;;;;;;;6.42;5.72;;;9.30;99.90;;;;;;1921489;74;21106;-79
2022/12/27 04:56:59;;;;;;;7.70;5.85;;;9.30;99.90;;;;;;1916177;75;21133;-79
2022/12/27 05:03:00;;;;;;;8.38;6.72;;;9.40;99.90;;;;;;1903984;75;21173;-81
2022/12/27 05:05:53;;;;;;;9.40;6.55;;;9.40;99.90;;;;;;1910704;75;21187;-80
2022/12/27 05:18:01;;;;;;;9.03;7.50;;;9.40;99.90;;;;;;1950745;72;22271;-80
2022/12/27 05:20:52;;;;;;;10.18;7.22;;;9.40;99.90;;;;;;1916576;75;21110;-80
2022/12/27 05:26:57;;;;;;;7.28;5.72;;;9.50;99.90;;;;;;1917028;75;21671;-79
2022/12/27 05:29:48;;;;;;;7.15;6.17;;;9.50;99.90;;;;;;1917312;75;21117;-80
2022/12/27 05:32:40;;;;;;;5.90;5.25;;;9.40;99.90;;;;;;1917104;75;21093;-80
2022/12/27 05:35:33;;;;;;;7.15;6.17;;;9.40;99.90;;;;;;1917368;75;21103;-79
2022/12/27 05:38:24;;;;;;;7.30;5.75;;;9.40;99.90;;;;;;1925139;73;21078;-79
2022/12/27 05:41:15;;;;;;;8.23;6.05;;;9.40;99.90;;;;;;1925387;73;21113;-79
2022/12/27 05:44:07;;;;;;;7.30;6.10;;;9.30;99.90;;;;;;1917179;75;21087;-81
2022/12/27 05:46:58;;;;;;;8.35;6.17;;;9.30;99.90;;;;;;1917223;75;21464;-79
2022/12/27 05:49:49;;;;;;;7.70;6.65;;;9.30;99.90;;;;;;1917227;75;21094;-80
2022/12/27 05:52:41;;;;;;;10.05;6.53;;;9.30;99.90;;;;;;1917254;75;21094;-80
2022/12/27 05:55:32;;;;;;;8.08;6.75;;;9.30;99.90;;;;;;1917227;75;21054;-79
2022/12/27 05:58:24;;;;;;;7.37;6.55;;;9.20;99.90;;;;;;1933058;73;21094;-80
2022/12/27 06:01:17;;;;;;;7.83;6.40;;;9.20;99.90;;;;;;1917747;73;21545;-79
2022/12/27 06:04:10;;;;;;;8.55;6.62;;;9.10;99.90;;;;;;1916959;75;21201;-79
2022/12/27 06:07:01;;;;;;;7.22;6.37;;;9.10;99.90;;;;;;1917369;75;21114;-79
2022/12/27 06:09:52;;;;;;;7.65;6.60;;;9.10;99.90;;;;;;1934005;73;21048;-79
2022/12/27 06:12:44;;;;;;;8.23;6.35;;;9.10;99.90;;;;;;1950976;73;21101;-80
2022/12/27 06:15:36;;;;;;;8.95;6.60;;;9.10;99.90;;;;;;1922511;73;21598;-79
2022/12/27 06:18:29;;;;;;;6.83;5.90;;;9.00;99.90;;;;;;1916134;74;21091;-80
2022/12/27 06:21:21;;;;;;;8.75;6.70;;;9.10;99.90;;;;;;1921505;74;21187;-80
2022/12/27 06:24:13;;;;;;;7.25;6.45;;;9.10;99.90;;;;;;1924696;74;21103;-80
2022/12/27 06:27:04;;;;;;;7.20;6.10;;;9.10;99.90;;;;;;1915160;74;21098;-80
2022/12/27 06:29:56;;;;;;;7.90;6.00;;;9.10;99.90;;;;;;1925638;74;21094;-81
2022/12/27 06:32:47;;;;;;;8.48;6.22;;;9.10;99.90;;;;;;1923356;74;21120;-80
2022/12/27 06:35:39;;;;;;;7.97;6.67;;;9.10;99.90;;;;;;1920109;74;21131;-80
2022/12/27 06:38:30;;;;;;;8.13;6.45;;;9.20;99.90;;;;;;1917991;74;21101;-80
2022/12/27 06:41:22;;;;;;;7.03;6.28;;;9.20;99.90;;;;;;1917734;74;21059;-79
2022/12/27 06:44:14;;;;;;;7.47;6.65;;;9.20;99.90;;;;;;1919280;74;21094;-80
2022/12/27 06:47:05;;;;;;;7.78;6.75;;;9.20;99.90;;;;;;1926384;74;21099;-81
2022/12/27 06:49:57;;;;;;;7.35;6.30;;;9.30;99.90;;;;;;1911803;74;21051;-80
2022/12/27 06:52:49;;;;;;;10.20;6.47;;;9.30;99.90;;;;;;1845307;77;21106;-80
2022/12/27 06:55:40;;;;;;;9.73;6.78;;;9.30;99.90;;;;;;1918366;74;21561;-80
2022/12/27 06:58:31;;;;;;;9.25;7.25;;;9.30;99.90;;;;;;1913971;74;21102;-79
2022/12/27 07:01:24;;;;;;;8.33;6.58;;;9.30;99.90;;;;;;1913601;74;21188;-79
2022/12/27 07:04:16;;;;;;;7.30;6.30;;;9.30;99.90;;;;;;1913042;74;21114;-80
2022/12/27 07:07:08;;;;;;;8.15;6.55;;;9.30;99.90;;;;;;1911528;74;21071;-79
2022/12/27 07:10:00;;;;;;;7.37;6.03;;;9.40;99.90;;;;;;1915139;74;22301;-80
2022/12/27 07:12:53;;;;;;;7.05;6.17;;;9.40;99.90;;;;;;1914831;74;21047;-79
2022/12/27 07:15:44;;;;;;;6.65;5.95;;;9.40;99.90;;;;;;1910500;74;21219;-79
2022/12/27 07:18:36;;;;;;;7.33;6.20;;;9.40;99.90;;;;;;1919493;74;21138;-79
2022/12/27 07:21:29;;;;;;;8.08;5.87;;;9.40;99.90;;;;;;1925804;74;21135;-79
2022/12/27 07:24:21;;;;;;;7.53;5.75;;;9.40;99.90;;;;;;1941675;73;21158;-81
2022/12/27 07:27:14;;;;;;;7.17;5.87;;;9.40;99.90;;;;;;1927256;73;21131;-80
2022/12/27 07:30:07;;;;;;;7.72;5.85;;;9.40;99.90;;;;;;1926110;74;21212;-80
2022/12/27 07:32:58;;;;;;;7.35;5.97;;;9.40;99.90;;;;;;1926526;73;21168;-80
2022/12/27 07:35:49;;;;;;;7.90;6.47;;;9.50;99.90;;;;;;1942577;73;21175;-80
2022/12/27 07:38:41;;;;;;;9.90;6.12;;;9.50;99.90;;;;;;1926078;74;21094;-79
2022/12/27 07:41:33;;;;;;;7.47;6.33;;;9.50;99.90;;;;;;1925796;74;21079;-80
2022/12/27 07:44:27;;;;;;;7.17;6.05;;;9.40;99.90;;;;;;1925915;74;21111;-79
2022/12/27 07:47:18;;;;;;;6.72;5.47;;;9.30;99.90;;;;;;1925961;74;21175;-79
2022/12/27 07:50:10;;;;;;;6.05;4.78;;;9.30;99.90;;;;;;1925876;74;21554;-79
2022/12/27 07:53:02;;;;;;;6.72;5.40;;;9.20;99.90;;;;;;1925709;74;21102;-79
2022/12/27 07:55:53;;;;;;;6.75;5.60;;;9.20;99.90;;;;;;1926031;74;21417;-79
2022/12/27 07:58:48;;;;;;;6.75;5.53;;;9.20;99.90;;;;;;1926350;74;21181;-80
2022/12/27 08:04:53;;;;;;;6.58;5.37;;;9.20;99.90;;;;;;1942155;73;21518;-79
2022/12/27 08:07:45;;;;;;;6.55;5.60;;;9.20;99.90;;;;;;1925932;73;21603;-81
2022/12/27 08:10:36;;;;;;;7.20;5.78;;;9.20;99.90;;;;;;1930271;73;21335;-80
2022/12/27 08:13:27;;;;;;;6.42;4.83;;;9.20;99.90;;;;;;1938358;73;21589;-80
2022/12/27 08:16:21;;;;;;;7.58;6.08;;;9.30;99.90;;;;;;1925580;74;21105;-79
2022/12/27 08:19:13;;;;;;;9.70;6.33;;;9.30;99.90;;;;;;1917687;74;21189;-81
2022/12/27 08:22:04;;;;;;;6.95;5.80;;;9.30;99.90;;;;;;1932319;74;21078;-80
2022/12/27 08:28:19;;;;;;;8.68;6.37;;;9.40;99.90;;;;;;1915909;75;21067;-80
2022/12/27 08:31:12;;;;;;;10.18;7.40;;;9.40;99.90;;;;;;1903868;75;21724;-81
2022/12/27 08:34:03;;;;;;;10.13;7.58;;;9.40;99.90;;;;;;1903964;75;21164;-79
2022/12/27 08:36:55;;;;;;;8.43;7.03;;;9.50;99.90;;;;;;1913504;74;21102;-81
2022/12/27 08:39:47;;;;;;;8.23;6.83;;;9.40;99.90;;;;;;1910227;74;21448;-80
2022/12/27 08:42:39;;;;;;;8.90;7.15;;;9.40;99.90;;;;;;1916095;73;21128;-80
2022/12/27 08:45:30;;;;;;;8.35;6.75;;;9.40;99.90;;;;;;1904038;75;21192;-80
2022/12/27 08:48:21;;;;;;;10.70;6.92;;;9.50;99.90;;;;;;1916378;75;21204;-79
2022/12/27 08:51:13;;;;;;;8.35;6.47;;;9.50;99.90;;;;;;1903956;75;21099;-79
2022/12/27 08:54:06;;;;;;;9.40;7.65;;;9.60;99.90;;;;;;1916459;75;21322;-80
2022/12/27 08:56:57;;;;;;;8.68;6.33;;;9.70;99.90;;;;;;1903922;75;21067;-80
2022/12/27 08:59:49;;;;;;;8.60;6.97;;;9.70;99.90;;;;;;1903886;75;21098;-80
2022/12/27 09:02:41;;;;;;;10.05;7.08;;;9.70;99.90;;;;;;1903949;75;21122;-80
2022/12/27 09:05:34;;;;;;;10.13;7.50;;;9.70;99.90;;;;;;1903911;75;21047;-80
2022/12/27 09:08:27;;;;;;;10.23;6.72;;;9.80;99.90;;;;;;1916228;75;21609;-81
2022/12/27 09:11:20;;;;;;;10.58;8.00;;;9.80;99.90;;;;;;1903935;75;21059;-80
2022/12/27 09:14:12;;;;;;;10.25;8.43;;;9.80;99.90;;;;;;1903979;75;21197;-80
2022/12/27 09:17:06;;;;;;;9.53;8.40;;;9.80;99.90;;;;;;1907613;74;21461;-80
2022/12/27 09:19:57;;;;;;;10.23;8.05;;;9.90;99.90;;;;;;1915076;74;21111;-81
2022/12/27 09:22:51;;;;;;;10.38;8.53;;;9.90;99.90;;;;;;1913657;74;21118;-79
2022/12/27 09:25:43;;;;;;;10.63;8.55;;;10.00;99.90;;;;;;1918043;74;21139;-80
2022/12/27 09:28:35;;;;;;;9.95;8.68;;;10.00;99.90;;;;;;1918079;74;21102;-79
2022/12/27 09:31:28;;;;;;;13.55;9.03;;;10.00;99.90;;;;;;1923883;74;21164;-79
2022/12/27 09:34:19;;;;;;;12.53;9.53;;;10.00;99.90;;;;;;1914772;74;21152;-79
2022/12/27 09:37:11;;;;;;;12.00;8.58;;;10.10;99.90;;;;;;1910364;74;21176;-80
2022/12/27 09:40:03;;;;;;;11.30;8.65;;;10.10;99.90;;;;;;1910839;74;21107;-80
2022/12/27 09:42:58;;;;;;;16.57;12.63;;;10.10;99.90;;;;;;1911184;74;21103;-80
2022/12/27 09:45:54;;;;;;;14.28;10.93;;;10.10;99.90;;;;;;1921223;74;21115;-80
2022/12/27 09:48:47;;;;;;;12.93;10.38;;;10.10;99.90;;;;;;1920329;74;21091;-80
2022/12/27 09:51:43;;;;;;;12.60;9.13;;;10.10;99.90;;;;;;1923883;74;21539;-80
2022/12/27 09:57:22;;;;;;;14.18;10.30;;;10.10;99.90;;;;;;1953488;72;22158;-80
2022/12/27 10:00:19;;;;;;;14.90;10.58;;;10.20;99.90;;;;;;1920482;74;21055;-80
2022/12/27 10:03:13;;;;;;;18.05;10.82;;;10.30;99.90;;;;;;1896905;75;21089;-80
2022/12/27 10:06:07;;;;;;;14.58;10.63;;;10.20;99.90;;;;;;1887501;75;21128;-80
2022/12/27 10:09:03;;;;;;;14.93;10.32;;;10.20;99.90;;;;;;1888886;75;21105;-79
2022/12/27 10:11:58;;;;;;;16.77;11.43;;;10.20;99.90;;;;;;1895168;75;21097;-80
2022/12/27 10:15:01;;;;;;;14.60;10.48;;;10.20;99.90;;;;;;1884326;76;21201;-80
2022/12/27 10:17:57;;;;;;;13.68;9.98;;;10.30;99.90;;;;;;1880126;76;21110;-80
2022/12/27 10:20:57;;;;;;;13.72;8.78;;;10.30;99.90;;;;;;1906485;75;21110;-80
2022/12/27 10:23:52;;;;;;;13.80;9.70;;;10.20;99.90;;;;;;1906206;75;21058;-80
2022/12/27 10:26:44;;;;;;;13.48;10.03;;;10.30;99.90;;;;;;1906186;75;21117;-80
2022/12/27 10:29:36;;;;;;;12.43;9.58;;;10.30;99.90;;;;;;1884138;76;21143;-80
2022/12/27 10:32:28;;;;;;;10.90;8.83;;;10.30;99.90;;;;;;1898788;75;21106;-79
2022/12/27 10:35:21;;;;;;;12.00;9.23;;;10.30;99.90;;;;;;1894857;75;21147;-82
2022/12/27 10:38:13;;;;;;;13.48;8.80;;;10.30;99.90;;;;;;1895171;75;21110;-81
2022/12/27 10:41:14;;;;;;;11.05;8.43;;;10.30;99.90;;;;;;1895076;75;21493;-80
2022/12/27 10:44:11;;;;;;;10.80;7.62;;;10.30;99.90;;;;;;1880436;76;21581;-82
2022/12/27 10:47:03;;;;;;;10.78;7.85;;;10.30;99.90;;;;;;1898523;75;21128;-80
2022/12/27 10:50:06;;;;;;;10.13;7.60;;;10.30;99.90;;;;;;1895192;75;21151;-80
2022/12/27 10:52:58;;;;;;;11.18;8.93;;;10.40;99.90;;;;;;1894941;75;21168;-81
2022/12/27 10:55:49;;;;;;;9.28;7.75;;;10.30;99.90;;;;;;1894930;74;21106;-82
2022/12/27 10:58:43;;;;;;;9.70;7.70;;;10.50;99.90;;;;;;1914183;74;21058;-79
2022/12/27 11:01:35;;;;;;;10.28;7.83;;;10.60;99.90;;;;;;1913750;74;21614;-80
2022/12/27 11:04:26;;;;;;;9.60;7.12;;;10.70;99.90;;;;;;1910994;74;21356;-81
2022/12/27 11:07:19;;;;;;;10.95;7.37;;;10.90;99.90;;;;;;1907318;74;21054;-80
2022/12/27 11:10:17;;;;;;;8.88;7.50;;;11.00;99.90;;;;;;1857172;77;21107;-80
2022/12/27 11:13:12;;;;;;;8.65;6.72;;;11.00;99.90;;;;;;1932266;74;21102;-80
2022/12/27 11:16:04;;;;;;;13.35;9.23;;;11.10;99.90;;;;;;1911456;74;21066;-79
2022/12/27 11:18:59;;;;;;;10.68;7.80;;;11.10;99.90;;;;;;1910255;74;21600;-79
2022/12/27 11:21:51;;;;;;;17.73;10.32;;;11.20;99.90;;;;;;1910471;74;21109;-79
2022/12/27 11:24:48;;;;;;;11.45;9.20;;;11.20;99.90;;;;;;1912231;74;21051;-79
2022/12/27 11:27:40;;;;;;;12.63;9.88;;;11.20;99.90;;;;;;1899358;75;21538;-80
2022/12/27 11:30:34;;;;;;;11.83;8.10;;;11.20;99.90;;;;;;1910093;74;21156;-80
2022/12/27 11:33:30;;;;;;;10.65;8.13;;;11.20;99.90;;;;;;1910057;74;21085;-79
2022/12/27 11:36:28;;;;;;;10.55;8.10;;;11.30;99.90;;;;;;1909558;74;21113;-79
2022/12/27 11:39:41;;;;;;;11.50;7.78;;;11.20;99.90;;;;;;1912216;74;21613;-79
2022/12/27 11:42:37;;;;;;;10.28;7.65;;;11.20;99.90;;;;;;1899202;75;21132;-80
2022/12/27 11:45:32;;;;;;;9.88;7.10;;;11.10;99.90;;;;;;1839658;77;21662;-80
2022/12/27 11:48:26;;;;;;;9.83;7.05;;;11.20;99.90;;;;;;1857091;77;21067;-80
2022/12/27 11:51:52;;;;;;;8.35;7.15;;;11.20;99.90;;;;;;1857171;77;21061;-80
2022/12/27 11:58:44;;;;;;;9.08;7.20;;;11.10;99.90;;;;;;1941740;72;22263;-81
2022/12/27 12:01:48;;;;;;;8.13;6.78;;;11.10;99.90;;;;;;1897735;75;21098;-80
2022/12/27 12:05:07;;;;;;;8.70;7.40;;;11.20;99.90;;;;;;1897547;74;21200;-80
2022/12/27 12:08:22;;;;;;;8.00;7.08;;;11.30;99.90;;;;;;1897044;75;21156;-80
2022/12/27 12:11:38;;;;;;;7.60;6.58;;;11.30;99.90;;;;;;1884041;76;21241;-79
2022/12/27 12:15:10;;;;;;;8.50;6.62;;;11.30;99.90;;;;;;1899867;74;21167;-80
2022/12/27 12:18:16;;;;;;;7.75;6.35;;;11.40;99.90;;;;;;1884169;76;21102;-79
2022/12/27 12:21:25;;;;;;;6.60;5.58;;;11.30;99.90;;;;;;1902548;74;21530;-79
2022/12/27 12:24:45;;;;;;;5.85;4.45;;;11.30;99.90;;;;;;1884367;76;21637;-81
2022/12/27 12:27:56;;;;;;;5.75;4.90;;;11.40;99.90;;;;;;1899530;75;21155;-79
2022/12/27 12:30:56;;;;;;;7.75;6.35;;;11.50;99.90;;;;;;1896946;75;21190;-79
2022/12/27 12:34:05;;;;;;;10.38;8.20;;;11.40;99.90;;;;;;1891440;75;21169;-80
2022/12/27 12:37:07;;;;;;;7.55;6.45;;;11.40;99.90;;;;;;1917085;75;21102;-81
2022/12/27 12:43:16;;;;;;;7.30;5.80;;;11.40;99.90;;;;;;1944619;72;22322;-78
2022/12/27 12:46:15;;;;;;;7.83;5.72;;;11.40;99.90;;;;;;1920778;73;21576;-80
2022/12/27 12:49:35;;;;;;;8.45;6.40;;;11.40;99.90;;;;;;1927996;73;21121;-80
2022/12/27 12:52:49;;;;;;;8.25;6.67;;;11.40;99.90;;;;;;1926239;73;21110;-80
2022/12/27 12:55:52;;;;;;;8.43;6.67;;;11.40;99.90;;;;;;1916769;75;21159;-81
2022/12/27 12:58:51;;;;;;;7.37;5.67;;;11.40;99.90;;;;;;1916593;75;21124;-79
2022/12/27 13:01:51;;;;;;;6.80;4.92;;;11.50;99.90;;;;;;1916433;75;21659;-79
2022/12/27 13:05:02;;;;;;;6.87;5.08;;;11.50;99.90;;;;;;1916413;75;21080;-79
2022/12/27 13:08:01;;;;;;;7.53;5.97;;;11.60;99.90;;;;;;1918030;73;21063;-80
2022/12/27 13:11:20;;;;;;;7.42;6.17;;;11.60;99.90;;;;;;1939633;73;21179;-79
2022/12/27 13:14:14;;;;;;;;;;;11.70;99.90;;;;;;1920212;75;21513;-79
2022/12/27 13:17:10;;;;;;;7.53;6.80;;;11.70;99.90;;;;;;1916995;75;20171;-79
2022/12/27 13:20:13;;;;;;;13.80;6.72;;;11.60;99.90;;;;;;1939407;73;21097;-80
2022/12/27 13:23:08;;;;;;;8.28;7.00;;;11.70;99.90;;;;;;1937706;73;21129;-79
2022/12/27 13:26:04;;;;;;;7.78;6.65;;;11.70;99.90;;;;;;1934738;73;21153;-79
2022/12/27 13:29:05;;;;;;;6.62;5.25;;;11.70;99.90;;;;;;1916810;75;21131;-79
2022/12/27 13:32:00;;;;;;;5.70;4.65;;;11.70;99.90;;;;;;1916917;75;21238;-80
2022/12/27 13:34:57;;;;;;;5.42;4.62;;;11.70;99.90;;;;;;1917055;75;21095;-79
2022/12/27 13:37:53;;;;;;;5.80;4.28;;;11.70;99.90;;;;;;1917006;75;21075;-80
2022/12/27 13:40:58;;;;;;;6.17;4.50;;;11.80;99.90;;;;;;1916793;75;21184;-79
2022/12/27 13:44:09;;;;;;;6.12;4.55;;;11.90;99.90;;;;;;1946148;73;21071;-79
2022/12/27 13:47:11;;;;;;;5.00;3.98;;;11.90;99.90;;;;;;1939918;73;21102;-80
2022/12/27 13:50:51;;;;;;;4.25;3.85;;;11.90;99.90;;;;;;1917179;75;21087;-80
2022/12/27 13:54:15;;;;;;;5.17;4.10;;;11.90;99.90;;;;;;1824288;75;21233;-80
2022/12/27 13:57:13;;;;;;;5.08;4.50;;;12.00;99.90;;;;;;1916423;75;21146;-81
2022/12/27 14:00:07;;;;;;;;;;;12.10;99.90;;;;;;1919228;74;21239;-79
2022/12/27 14:03:29;;;;;;;6.08;5.17;;;12.10;99.90;;;;;;1928160;73;20157;-79
2022/12/27 14:06:55;;;;;;;5.97;4.80;;;12.00;99.90;;;;;;1929785;73;21609;-81
2022/12/27 14:10:18;;;;;;;7.78;5.30;;;11.90;99.90;;;;;;1916264;75;21158;-81
2022/12/27 14:13:12;;;;;;;5.60;5.00;;;11.90;99.90;;;;;;1913247;75;21165;-81
2022/12/27 14:16:35;;;;;;;6.12;5.53;;;12.00;99.90;;;;;;1916206;75;21106;-79
2022/12/27 14:19:49;;;;;;;8.18;5.53;;;12.10;99.90;;;;;;1916085;75;21230;-79
2022/12/27 14:22:48;;;;;;;5.75;5.05;;;12.20;99.90;;;;;;1916384;75;21571;-80
2022/12/27 14:26:11;;;;;;;6.28;5.17;;;12.20;99.90;;;;;;1916629;75;21118;-79
2022/12/27 14:29:38;;;;;;;5.83;5.05;;;12.30;99.90;;;;;;1916402;75;21114;-80
2022/12/27 14:32:58;;;;;;;5.95;4.92;;;12.30;99.90;;;;;;1916338;73;21110;-79
2022/12/27 14:36:18;;;;;;;12.80;11.43;;;12.20;99.90;;;;;;1919192;74;21079;-79
2022/12/27 14:39:53;;;;;;;5.87;5.10;;;12.30;99.90;;;;;;1932409;73;21119;-80
2022/12/27 14:43:12;;;;;;;6.35;4.67;;;12.40;99.90;;;;;;1937575;73;21157;-79
2022/12/27 14:46:39;;;;;;;6.72;5.28;;;12.50;99.90;;;;;;1930029;74;21098;-79
2022/12/27 14:49:52;;;;;;;4.92;4.42;;;12.40;99.90;;;;;;1902630;74;21232;-79
2022/12/27 14:53:30;;;;;;;6.05;4.75;;;12.40;99.90;;;;;;1924909;74;21055;-79
2022/12/27 14:56:24;;;;;;;;;;;12.20;99.90;;;;;;1941213;74;21159;-79
2022/12/27 14:59:25;;;;;;;4.72;4.15;;;12.20;99.90;;;;;;1938249;74;20136;-79
2022/12/27 15:02:34;;;;;;;6.58;5.22;;;12.00;99.90;;;;;;1938691;74;21093;-79
2022/12/27 15:05:36;;;;;;;6.65;4.97;;;11.90;99.90;;;;;;1938571;74;21157;-80
2022/12/27 15:08:50;;;;;;;5.70;4.78;;;11.80;99.90;;;;;;1890104;76;21533;-79
2022/12/27 15:11:57;;;;;;;4.95;4.35;;;11.70;99.90;;;;;;1889851;76;21183;-79
2022/12/27 15:14:59;;;;;;;5.37;4.62;;;11.70;99.90;;;;;;1907097;74;21258;-79
2022/12/27 15:18:05;;;;;;;5.22;4.35;;;11.70;99.90;;;;;;1913892;74;21176;-80
2022/12/27 15:21:22;;;;;;;6.50;5.50;;;11.60;99.90;;;;;;1902196;74;21089;-80
2022/12/27 15:24:22;;;;;;;7.92;5.03;;;11.60;99.90;;;;;;1903527;74;21646;-79
2022/12/27 15:27:19;;;;;;;5.75;4.85;;;11.50;99.90;;;;;;1923436;74;21273;-79
2022/12/27 15:30:21;;;;;;;5.42;4.47;;;11.50;99.90;;;;;;1917371;74;21109;-79
2022/12/27 15:33:17;;;;;;;5.30;4.80;;;11.40;99.90;;;;;;1930494;74;21122;-79
2022/12/27 15:36:12;;;;;;;5.20;4.37;;;11.40;99.90;;;;;;1925854;74;21074;-80
2022/12/27 15:39:04;;;;;;;6.83;4.35;;;11.30;99.90;;;;;;1935041;74;21549;-79
2022/12/27 15:42:00;;;;;;;5.22;4.30;;;11.20;99.90;;;;;;1909719;74;21051;-79
2022/12/27 15:44:57;;;;;;;5.12;4.55;;;11.20;99.90;;;;;;1931719;74;21124;-79
2022/12/27 15:47:59;;;;;;;8.15;5.65;;;11.10;99.90;;;;;;1932446;74;21642;-79
2022/12/27 15:51:00;;;;;;;6.50;5.60;;;11.00;99.90;;;;;;1955541;73;21179;-79
2022/12/27 15:54:33;;;;;;;6.35;5.33;;;10.90;99.90;;;;;;1932289;74;21110;-80
2022/12/27 15:58:13;;;;;;;6.65;5.35;;;10.80;99.90;;;;;;1955385;73;21098;-80
2022/12/27 16:01:29;;;;;;;5.42;4.58;;;10.70;99.90;;;;;;1927234;74;21162;-80
2022/12/27 16:04:47;;;;;;;6.30;5.25;;;10.60;99.90;;;;;;1932310;74;21082;-80
2022/12/27 16:07:46;;;;;;;7.35;5.70;;;10.60;99.90;;;;;;1932644;74;21525;-80
2022/12/27 16:10:52;;;;;;;;;;;10.50;99.90;;;;;;1935390;74;21133;-80
2022/12/27 16:13:50;;;;;;;7.35;6.00;;;10.40;99.90;;;;;;1932417;74;20249;-79
2022/12/27 16:16:51;;;;;;;7.70;5.78;;;10.30;99.90;;;;;;1932578;74;21094;-79
2022/12/27 16:19:58;;;;;;;6.37;5.40;;;10.30;99.90;;;;;;1951564;73;21102;-79
2022/12/27 16:22:56;;;;;;;7.40;5.67;;;10.30;99.90;;;;;;1932648;74;21108;-79
2022/12/27 16:32:29;;;;;;;6.87;5.37;;;10.10;99.90;;;;;;1932275;74;21124;-79
2022/12/27 16:35:21;;;;;;;6.85;5.28;;;10.10;99.90;;;;;;1932296;74;21552;-79
2022/12/27 16:38:19;;;;;;;5.90;5.30;;;10.10;99.90;;;;;;1932252;74;21120;-81
2022/12/27 16:41:16;;;;;;;9.00;5.67;;;10.00;99.90;;;;;;1932476;74;21121;-79
2022/12/27 16:44:15;;;;;;;7.97;5.67;;;10.00;99.90;;;;;;1932234;74;21094;-80
2022/12/27 16:47:12;;;;;;;6.85;5.53;;;9.90;99.90;;;;;;1921279;74;21130;-80
2022/12/27 16:50:17;;;;;;;8.75;6.35;;;9.90;99.90;;;;;;1924771;74;21116;-79
2022/12/27 16:53:43;;;;;;;7.83;5.97;;;9.90;99.90;;;;;;1920366;74;21099;-79
2022/12/27 16:56:37;;;;;;;9.33;7.12;;;9.90;99.90;;;;;;1863894;76;21137;-79
2022/12/27 17:00:07;;;;;;;7.92;6.90;;;9.80;99.90;;;;;;1937479;74;21172;-79
2022/12/27 17:05:37;;;;;;;8.78;6.97;;;9.70;99.90;;;;;;1950970;72;22237;-81
2022/12/27 17:08:31;;;;;;;9.05;7.28;;;9.70;99.90;;;;;;1884086;75;21114;-79
2022/12/27 17:11:28;;;;;;;9.30;7.65;;;9.70;99.90;;;;;;1898548;75;21538;-79
2022/12/27 17:14:24;;;;;;;10.82;7.72;;;9.70;99.90;;;;;;1883744;75;21213;-79
2022/12/27 17:17:19;;;;;;;10.35;8.15;;;9.60;99.90;;;;;;1900075;75;21185;-80
2022/12/27 17:23:41;;;;;;;10.23;7.87;;;9.50;99.90;;;;;;1890528;75;21130;-79
2022/12/27 17:26:53;;;;;;;13.55;8.03;;;9.40;99.90;;;;;;1906115;75;21137;-79
2022/12/27 17:29:56;;;;;;;10.60;8.48;;;9.40;99.90;;;;;;1906088;75;21113;-79
2022/12/27 17:33:08;;;;;;;11.65;9.25;;;9.40;99.90;;;;;;1884199;76;21138;-80
2022/12/27 17:36:25;;;;;;;11.60;8.90;;;9.30;99.90;;;;;;1903185;75;21226;-79
2022/12/27 17:39:29;;;;;;;11.38;9.65;;;9.30;99.90;;;;;;1903945;75;21177;-79